createdAt,value
2022-09-10T00:01:33.792Z,15.50
2022-09-10T00:04:02.845Z,15.40
2022-09-10T00:06:32.979Z,15.30
2022-09-10T00:09:01.247Z,15.30
2022-09-10T00:11:31.874Z,15.30
2022-09-10T00:14:04.063Z,15.40
2022-09-10T00:16:32.165Z,15.20
2022-09-10T00:19:00.977Z,15.10
2022-09-10T00:21:29.439Z,15.10
2022-09-10T00:23:57.046Z,15.10
2022-09-10T00:26:26.608Z,15.20
2022-09-10T00:28:55.561Z,15.40
2022-09-10T00:31:24.304Z,15.40
2022-09-10T00:33:52.414Z,15.20
2022-09-10T00:36:22.439Z,15.10
2022-09-10T00:38:50.389Z,15.00
2022-09-10T00:41:18.954Z,15.00
2022-09-10T00:44:07.887Z,15.10
2022-09-10T00:46:37.811Z,15.10
2022-09-10T00:49:14.542Z,15.10
2022-09-10T00:51:42.701Z,15.10
2022-09-10T00:54:09.597Z,15.10
2022-09-10T00:56:37.141Z,15.20
2022-09-10T00:59:05.369Z,15.20
2022-09-10T01:01:33.586Z,15.10
2022-09-10T01:04:01.383Z,15.10
2022-09-10T01:06:28.906Z,15.00
2022-09-10T01:08:55.689Z,14.90
2022-09-10T01:11:42.402Z,15.10
2022-09-10T01:14:24.255Z,15.20
2022-09-10T01:17:21.704Z,15.30
2022-09-10T01:20:24.797Z,15.30
2022-09-10T01:23:17.871Z,15.50
2022-09-10T01:25:57.034Z,15.30
2022-09-10T01:28:35.317Z,15.30
2022-09-10T01:31:36.487Z,15.40
2022-09-10T01:34:35.684Z,15.50
2022-09-10T01:37:14.279Z,15.40
2022-09-10T01:39:42.154Z,15.50
2022-09-10T01:42:09.133Z,15.40
2022-09-10T01:44:42.930Z,15.40
2022-09-10T01:47:21.920Z,15.50
2022-09-10T01:50:07.828Z,15.50
2022-09-10T01:53:14.248Z,15.70
2022-09-10T01:56:17.494Z,15.50
2022-09-10T01:58:46.163Z,15.40
2022-09-10T02:01:29.646Z,15.30
2022-09-10T02:04:03.224Z,15.30
2022-09-10T02:06:34.450Z,15.20
2022-09-10T02:09:03.416Z,15.30
2022-09-10T02:11:31.455Z,15.20
2022-09-10T02:14:01.213Z,15.10
2022-09-10T02:16:55.973Z,15.10
2022-09-10T02:19:22.648Z,15.10
2022-09-10T02:21:52.044Z,15.30
2022-09-10T02:24:18.868Z,15.40
2022-09-10T02:26:46.542Z,15.40
2022-09-10T02:29:15.784Z,15.30
2022-09-10T02:31:43.918Z,15.50
2022-09-10T02:34:12.965Z,15.70
2022-09-10T02:36:40.381Z,15.80
2022-09-10T02:39:07.994Z,15.60
2022-09-10T02:41:35.082Z,15.50
2022-09-10T02:44:03.811Z,15.40
2022-09-10T02:46:30.840Z,15.30
2022-09-10T02:48:58.369Z,15.30
2022-09-10T02:51:25.973Z,15.30
2022-09-10T02:53:52.765Z,15.30
2022-09-10T02:56:20.062Z,15.30
2022-09-10T02:58:46.829Z,15.30
2022-09-10T03:01:18.132Z,15.40
2022-09-10T03:03:51.684Z,15.20
2022-09-10T03:06:20.150Z,15.30
2022-09-10T03:08:47.369Z,15.30
2022-09-10T03:11:16.501Z,15.20
2022-09-10T03:13:45.713Z,15.10
2022-09-10T03:16:13.591Z,15.20
2022-09-10T03:18:41.363Z,15.30
2022-09-10T03:21:14.841Z,15.30
2022-09-10T03:23:43.602Z,15.50
2022-09-10T03:26:11.685Z,15.50
2022-09-10T03:28:38.609Z,15.40
2022-09-10T03:31:07.374Z,15.40
2022-09-10T03:33:43.457Z,15.30
2022-09-10T03:36:13.142Z,15.20
2022-09-10T03:38:42.187Z,15.40
2022-09-10T03:41:09.811Z,15.40
2022-09-10T03:43:36.965Z,15.50
2022-09-10T03:46:07.492Z,15.50
2022-09-10T03:48:39.401Z,15.40
2022-09-10T03:51:08.001Z,15.50
2022-09-10T03:53:34.859Z,15.40
2022-09-10T03:56:03.322Z,15.20
2022-09-10T03:58:30.122Z,15.20
2022-09-10T04:00:56.878Z,15.10
2022-09-10T04:03:24.374Z,15.10
2022-09-10T04:05:51.897Z,15.10
2022-09-10T04:08:20.487Z,15.00
2022-09-10T04:10:48.104Z,15.00
2022-09-10T04:13:15.568Z,15.00
2022-09-10T04:15:47.004Z,14.90
2022-09-10T04:18:14.167Z,14.80
2022-09-10T04:20:40.957Z,14.90
2022-09-10T04:23:10.291Z,14.90
2022-09-10T04:25:38.645Z,14.70
2022-09-10T04:28:05.762Z,14.60
2022-09-10T04:30:33.268Z,14.40
2022-09-10T04:33:00.734Z,14.40
2022-09-10T04:35:29.833Z,14.50
2022-09-10T04:37:57.882Z,14.60
2022-09-10T04:40:27.147Z,14.50
2022-09-10T04:42:53.845Z,14.40
2022-09-10T04:45:21.256Z,14.40
2022-09-10T04:47:48.014Z,14.40
2022-09-10T04:50:15.548Z,14.40
2022-09-10T04:53:02.159Z,14.30
2022-09-10T04:55:31.408Z,14.50
2022-09-10T04:57:58.077Z,14.60
2022-09-10T05:00:26.499Z,14.40
2022-09-10T05:02:53.673Z,14.40
2022-09-10T05:05:20.577Z,14.60
2022-09-10T05:07:48.571Z,14.70
2022-09-10T05:10:15.370Z,14.70
2022-09-10T05:12:42.319Z,14.80
2022-09-10T05:15:10.399Z,14.60
2022-09-10T05:17:37.158Z,14.60
2022-09-10T05:20:05.838Z,14.60
2022-09-10T05:22:40.334Z,14.40
2022-09-10T05:25:07.890Z,14.40
2022-09-10T05:27:34.666Z,14.50
2022-09-10T05:30:02.103Z,14.50
2022-09-10T05:32:30.084Z,14.40
2022-09-10T05:34:56.924Z,14.50
2022-09-10T05:37:23.778Z,14.50
2022-09-10T05:39:50.476Z,14.60
2022-09-10T05:42:18.642Z,14.50
2022-09-10T05:44:45.440Z,14.70
2022-09-10T05:47:12.081Z,14.90
2022-09-10T05:49:39.169Z,14.70
2022-09-10T05:52:06.106Z,14.70
2022-09-10T05:54:33.597Z,14.70
2022-09-10T05:57:00.552Z,14.80
2022-09-10T05:59:29.779Z,15.00
2022-09-10T06:01:56.860Z,15.00
2022-09-10T06:04:24.980Z,14.80
2022-09-10T06:06:52.029Z,14.70
2022-09-10T06:09:19.262Z,14.80
2022-09-10T06:11:53.229Z,14.90
2022-09-10T06:14:20.731Z,14.80
2022-09-10T06:16:49.326Z,14.80
2022-09-10T06:19:16.043Z,14.80
2022-09-10T06:21:42.781Z,14.60
2022-09-10T06:24:09.825Z,14.60
2022-09-10T06:26:38.263Z,14.70
2022-09-10T06:29:09.703Z,14.80
2022-09-10T06:31:37.912Z,15.10
2022-09-10T06:34:05.741Z,15.30
2022-09-10T06:36:33.878Z,15.50
2022-09-10T06:39:03.390Z,15.50
2022-09-10T06:41:37.389Z,15.60
2022-09-10T06:44:10.125Z,15.50
2022-09-10T06:49:31.226Z,15.60
2022-09-10T06:51:57.970Z,15.70
2022-09-10T06:54:26.398Z,15.60
2022-09-10T06:56:54.413Z,15.60
2022-09-10T06:59:21.712Z,15.60
2022-09-10T07:01:49.483Z,15.60
2022-09-10T07:04:17.559Z,15.70
2022-09-10T07:06:45.851Z,15.70
2022-09-10T07:09:15.356Z,15.60
2022-09-10T07:11:54.690Z,15.50
2022-09-10T07:14:21.704Z,15.50
2022-09-10T07:16:51.344Z,15.60
2022-09-10T07:19:20.512Z,15.50
2022-09-10T07:21:47.795Z,15.50
2022-09-10T07:24:16.242Z,15.70
2022-09-10T07:27:00.426Z,15.70
2022-09-10T07:29:29.679Z,15.80
2022-09-10T07:31:56.391Z,15.80
2022-09-10T07:34:24.351Z,15.80
2022-09-10T07:36:51.059Z,16.00
2022-09-10T07:39:22.403Z,16.00
2022-09-10T07:41:52.245Z,16.10
2022-09-10T07:44:22.017Z,16.00
2022-09-10T07:46:48.817Z,15.90
2022-09-10T08:52:45.509Z,15.50
2022-09-10T09:16:40.115Z,15.60
2022-09-10T09:36:53.808Z,16.10
2022-09-10T11:29:28.338Z,17.50
2022-09-10T12:01:49.353Z,17.30
2022-09-10T12:04:38.030Z,17.30
2022-09-10T12:07:35.732Z,17.50
2022-09-10T12:10:14.195Z,18.10
2022-09-10T12:12:49.969Z,18.90
2022-09-10T12:15:20.834Z,19.60
2022-09-10T12:18:18.786Z,19.80
2022-09-10T12:20:57.037Z,19.50
2022-09-10T12:23:33.566Z,19.90
2022-09-10T12:26:10.905Z,19.70
2022-09-10T12:28:43.536Z,19.50
2022-09-10T12:31:12.450Z,19.90
2022-09-10T12:33:45.236Z,20.40
2022-09-10T12:36:14.183Z,20.20
2022-09-10T12:39:03.433Z,20.20
2022-09-10T12:41:50.062Z,19.90
2022-09-10T12:44:35.070Z,20.10
2022-09-10T12:47:13.927Z,20.30
2022-09-10T12:49:50.995Z,19.90
2022-09-10T12:52:24.977Z,19.60
2022-09-10T12:54:55.652Z,19.60
2022-09-10T12:57:42.877Z,19.70
2022-09-10T13:00:21.861Z,19.30
2022-09-10T13:02:58.175Z,18.50
2022-09-10T13:05:29.922Z,18.30
2022-09-10T13:08:06.017Z,17.80
2022-09-10T13:10:32.973Z,17.10
2022-09-10T13:13:04.911Z,16.80
2022-09-10T13:15:35.644Z,17.10
2022-09-10T13:18:24.103Z,17.50
2022-09-10T13:20:51.010Z,17.80
2022-09-10T13:23:19.126Z,18.30
2022-09-10T13:25:47.678Z,18.90
2022-09-10T13:28:29.836Z,19.10
2022-09-10T13:31:08.666Z,19.40
2022-09-10T13:33:51.776Z,19.40
2022-09-10T13:36:40.019Z,19.50
2022-09-10T13:39:15.620Z,19.80
2022-09-10T13:42:02.000Z,19.40
2022-09-10T13:45:00.402Z,19.10
2022-09-10T13:48:03.063Z,18.60
2022-09-10T13:51:04.337Z,18.30
2022-09-10T13:53:33.166Z,18.00
2022-09-10T13:56:14.382Z,17.00
2022-09-10T13:58:48.415Z,16.40
2022-09-10T14:01:15.182Z,16.00
2022-09-10T14:03:42.015Z,15.90
2022-09-10T14:06:10.306Z,15.50
2022-09-10T14:08:44.476Z,15.60
2022-09-10T14:11:20.836Z,16.00
2022-09-10T14:13:55.337Z,16.10
2022-09-10T14:16:30.359Z,16.50
2022-09-10T14:18:59.665Z,16.60
2022-09-10T14:21:29.590Z,16.60
2022-09-10T14:23:58.950Z,16.50
2022-09-10T14:26:30.891Z,16.50
2022-09-10T14:29:01.010Z,16.60
2022-09-10T14:31:33.402Z,16.90
2022-09-10T14:34:24.075Z,17.10
2022-09-10T14:36:50.742Z,17.30
2022-09-10T14:39:22.800Z,17.40
2022-09-10T14:42:07.360Z,17.30
2022-09-10T14:44:40.465Z,17.10
2022-09-10T14:47:10.632Z,16.80
2022-09-10T14:49:39.456Z,17.20
2022-09-10T14:52:07.750Z,17.50
2022-09-10T14:54:35.042Z,17.80
2022-09-10T14:57:04.390Z,17.70
2022-09-10T14:59:33.557Z,17.40
2022-09-10T15:02:02.100Z,17.20
2022-09-10T15:04:30.107Z,17.20
2022-09-10T15:06:58.954Z,17.00
2022-09-10T15:09:27.636Z,17.00
2022-09-10T15:11:59.688Z,17.10
2022-09-10T15:14:26.437Z,17.10
2022-09-10T15:16:54.038Z,17.00
2022-09-10T15:19:22.133Z,16.90
2022-09-10T15:21:49.886Z,16.80
2022-09-10T15:24:22.034Z,16.70
2022-09-10T15:26:49.593Z,16.80
2022-09-10T15:29:17.815Z,17.00
2022-09-10T15:31:44.532Z,17.10
2022-09-10T15:34:11.658Z,17.10
2022-09-10T15:36:39.850Z,17.20
2022-09-10T15:39:07.852Z,17.20
2022-09-10T15:41:34.659Z,17.40
2022-09-10T15:44:02.904Z,17.50
2022-09-10T15:46:29.667Z,17.30
2022-09-10T15:48:59.379Z,17.40
2022-09-10T15:51:27.243Z,17.30
2022-09-10T15:53:54.785Z,17.10
2022-09-10T15:56:24.121Z,17.30
2022-09-10T15:58:52.635Z,17.30
2022-09-10T16:01:19.487Z,17.30
2022-09-10T16:03:50.109Z,17.20
2022-09-10T16:06:20.873Z,17.30
2022-09-10T16:08:49.461Z,17.10
2022-09-10T16:11:16.345Z,16.80
2022-09-10T16:13:43.367Z,16.90
2022-09-10T16:16:14.954Z,16.90
2022-09-10T16:18:41.789Z,16.60
2022-09-10T16:21:11.540Z,16.70
2022-09-10T16:23:40.132Z,17.00
2022-09-10T16:26:09.441Z,17.20
2022-09-10T16:28:37.138Z,17.20
2022-09-10T16:31:18.980Z,17.10
2022-09-10T16:33:46.349Z,16.70
2022-09-10T16:36:15.170Z,16.50
2022-09-10T16:38:43.829Z,16.30
2022-09-10T16:41:13.175Z,16.20
2022-09-10T16:43:41.152Z,15.90
2022-09-10T16:46:10.367Z,15.90
2022-09-10T16:48:38.607Z,16.00
2022-09-10T16:51:13.770Z,16.00
2022-09-10T16:53:42.197Z,15.80
2022-09-10T16:56:11.986Z,15.70
2022-09-10T16:58:39.492Z,15.80
2022-09-10T17:01:10.729Z,15.80
2022-09-10T17:03:45.598Z,15.70
2022-09-10T17:06:26.253Z,15.70
2022-09-10T17:09:00.608Z,15.60
2022-09-10T17:11:31.098Z,15.60
2022-09-10T17:14:01.092Z,15.60
2022-09-10T17:16:32.380Z,15.70
2022-09-10T17:19:03.020Z,15.50
2022-09-10T17:21:31.985Z,15.50
2022-09-10T17:23:59.573Z,15.90
2022-09-10T17:26:26.970Z,15.90
2022-09-10T17:29:14.788Z,16.00
2022-09-10T17:31:42.145Z,16.10
2022-09-10T17:34:12.717Z,15.80
2022-09-10T17:36:41.017Z,15.80
2022-09-10T17:39:07.713Z,15.70
2022-09-10T17:41:34.504Z,15.60
2022-09-10T17:44:01.329Z,15.70
2022-09-10T17:46:31.159Z,15.80
2022-09-10T17:49:00.128Z,15.80
2022-09-10T17:51:29.362Z,15.70
2022-09-10T17:53:56.703Z,15.80
2022-09-10T17:56:25.758Z,16.20
2022-09-10T17:59:03.628Z,16.30
2022-09-10T18:01:33.694Z,16.40
2022-09-10T18:04:00.445Z,16.50
2022-09-10T18:06:28.932Z,16.60
2022-09-10T18:08:58.979Z,16.70
2022-09-10T18:11:28.841Z,16.70
2022-09-10T18:13:57.260Z,16.60
2022-09-10T18:16:26.495Z,16.50
2022-09-10T18:18:56.260Z,16.40
2022-09-10T18:21:25.818Z,16.50
2022-09-10T18:23:58.035Z,16.30
2022-09-10T18:26:27.096Z,16.30
2022-09-10T18:28:59.293Z,16.40
2022-09-10T18:31:29.107Z,16.40
2022-09-10T18:33:56.101Z,16.10
2022-09-10T18:36:25.141Z,15.90
2022-09-10T18:38:52.778Z,15.70
2022-09-10T18:41:24.689Z,15.50
2022-09-10T18:43:53.720Z,15.40
2022-09-10T18:46:20.924Z,15.40
2022-09-10T18:48:48.337Z,15.40
2022-09-10T18:51:16.649Z,15.50
2022-09-10T18:53:45.228Z,15.60
2022-09-10T18:56:14.115Z,15.70
2022-09-10T18:58:41.192Z,15.70
2022-09-10T19:01:13.657Z,15.60
2022-09-10T19:03:42.886Z,15.40
2022-09-10T19:06:21.465Z,15.30
2022-09-10T19:08:55.090Z,15.30
2022-09-10T19:11:24.320Z,15.30
2022-09-10T19:13:53.404Z,15.30
2022-09-10T19:16:21.846Z,15.40
2022-09-10T19:18:53.433Z,15.40
2022-09-10T19:21:21.045Z,15.40
2022-09-10T19:23:49.483Z,15.40
2022-09-10T19:26:20.608Z,15.30
2022-09-10T19:28:47.853Z,15.30
2022-09-10T19:31:16.866Z,15.30
2022-09-10T19:33:43.595Z,15.50
2022-09-10T19:36:15.294Z,15.70
2022-09-10T19:38:42.416Z,16.00
2022-09-10T19:41:15.465Z,16.00
2022-09-10T19:43:42.133Z,16.10
2022-09-10T19:46:10.575Z,16.00
2022-09-10T19:48:37.711Z,16.00
2022-09-10T19:51:07.465Z,16.00
2022-09-10T19:53:35.261Z,16.00
2022-09-10T19:56:09.322Z,16.10
2022-09-10T19:58:37.426Z,16.10
2022-09-10T20:01:15.058Z,15.90
2022-09-10T20:03:44.656Z,15.90
2022-09-10T20:06:13.669Z,16.00
2022-09-10T20:08:41.477Z,16.10
2022-09-10T20:11:15.241Z,16.20
2022-09-10T20:13:42.456Z,16.10
2022-09-10T20:16:10.439Z,16.10
2022-09-10T20:18:38.094Z,16.20
2022-09-10T20:21:31.112Z,15.90
2022-09-10T20:23:58.430Z,15.60
2022-09-10T20:26:28.123Z,15.40
2022-09-10T20:28:57.220Z,15.50
2022-09-10T20:31:26.936Z,15.70
2022-09-10T20:33:56.347Z,15.60
2022-09-10T20:36:25.170Z,15.60
2022-09-10T20:38:53.249Z,15.40
2022-09-10T20:41:20.722Z,15.10
2022-09-10T20:43:54.134Z,15.00
2022-09-10T20:46:22.328Z,14.90
2022-09-10T20:48:50.399Z,15.00
2022-09-10T20:51:18.716Z,15.00
2022-09-10T20:53:45.456Z,14.90
2022-09-10T20:56:15.058Z,14.70
2022-09-10T20:58:42.149Z,14.60
2022-09-10T21:01:11.450Z,14.70
2022-09-10T21:03:39.814Z,14.70
2022-09-10T21:06:08.284Z,14.80
2022-09-10T21:08:39.535Z,14.50
2022-09-10T21:11:08.869Z,14.50
2022-09-10T21:13:37.417Z,14.60
2022-09-10T21:16:15.250Z,14.80
2022-09-10T21:18:42.737Z,15.00
2022-09-10T21:21:12.028Z,15.20
2022-09-10T21:23:47.229Z,15.30
2022-09-10T21:26:15.329Z,15.40
2022-09-10T21:28:42.533Z,15.40
2022-09-10T21:31:09.723Z,15.40
2022-09-10T21:33:37.198Z,15.40
2022-09-10T21:36:10.360Z,15.20
2022-09-10T21:38:37.982Z,15.20
2022-09-10T21:41:06.852Z,15.20
2022-09-10T21:43:34.941Z,15.10
2022-09-10T21:46:03.359Z,15.10
2022-09-10T21:48:30.959Z,15.00
2022-09-10T21:50:59.131Z,15.00
2022-09-10T21:53:27.377Z,15.00
2022-09-10T21:55:59.060Z,14.80
2022-09-10T21:58:27.908Z,14.80
2022-09-10T22:00:58.303Z,14.50
2022-09-10T22:03:26.737Z,14.20
2022-09-10T22:05:53.370Z,14.10
2022-09-10T22:08:20.060Z,14.30
2022-09-10T22:10:47.132Z,14.40
2022-09-10T22:13:13.801Z,14.70
2022-09-10T22:15:44.023Z,14.80
2022-09-10T22:18:10.713Z,14.80
2022-09-10T22:20:37.520Z,15.00
2022-09-10T22:23:04.564Z,15.10
2022-09-10T22:25:31.266Z,15.20
2022-09-10T22:27:58.225Z,15.20
2022-09-10T22:30:28.667Z,15.20
2022-09-10T22:32:56.841Z,15.10
2022-09-10T22:35:26.631Z,15.10
2022-09-10T22:37:57.121Z,15.00
2022-09-10T22:40:24.505Z,14.90
2022-09-10T22:42:51.880Z,14.90
2022-09-10T22:45:20.614Z,14.90
2022-09-10T22:47:50.190Z,15.20
2022-09-10T22:50:16.944Z,14.90
2022-09-10T22:52:44.216Z,14.70
2022-09-10T22:55:10.930Z,14.60
2022-09-10T22:57:39.457Z,14.60
2022-09-10T23:00:07.896Z,14.60
2022-09-10T23:02:34.512Z,14.60
2022-09-10T23:05:01.362Z,14.70
2022-09-10T23:07:27.990Z,14.70
2022-09-10T23:09:55.108Z,14.80
2022-09-10T23:12:22.006Z,14.90
2022-09-10T23:14:48.731Z,15.00
2022-09-10T23:17:17.552Z,15.20
2022-09-10T23:19:47.314Z,15.00
2022-09-10T23:22:14.005Z,15.00
2022-09-10T23:24:40.631Z,15.10
2022-09-10T23:27:07.236Z,15.20
2022-09-10T23:29:35.315Z,14.90
2022-09-10T23:32:02.149Z,14.70
2022-09-10T23:34:28.790Z,14.60
2022-09-10T23:36:55.488Z,14.50
2022-09-10T23:39:24.054Z,14.70
2022-09-10T23:41:53.649Z,14.70
2022-09-10T23:44:20.375Z,14.50
2022-09-10T23:46:47.138Z,14.40
2022-09-10T23:49:14.424Z,14.60
2022-09-10T23:51:41.088Z,14.60
2022-09-10T23:54:08.795Z,14.60
2022-09-10T23:56:35.428Z,14.60
2022-09-10T23:59:03.394Z,14.70
